Time;durP1;ratioP1;P1;durP2;ratioP2;P2;SDS_P1;SDS_P2;PMS_P1;PMS_P2;Temp;Humidity;BMP_temperature;BMP_pressure;BME280_temperature;BME280_humidity;BME280_pressure;Samples;Min_cycle;Max_cycle;Signal;HPM_P1;HPM_P2
2022/01/11 00:01:26;;;;;;;8.32;6.53;;;2.50;99.90;;;;;;4955380;28;20070;-73
2022/01/11 00:03:55;;;;;;;7.57;6.63;;;2.50;99.90;;;;;;4938725;29;20127;-75
2022/01/11 00:06:34;;;;;;;8.82;6.53;;;2.60;99.90;;;;;;4953780;29;20031;-73
2022/01/11 00:09:08;;;;;;;8.70;6.22;;;2.60;99.90;;;;;;4944264;29;20032;-73
2022/01/11 00:11:35;;;;;;;8.57;6.53;;;2.60;99.90;;;;;;4942502;29;20499;-71
2022/01/11 00:14:03;;;;;;;8.15;6.70;;;2.70;99.90;;;;;;4942987;29;20114;-72
2022/01/11 00:16:30;;;;;;;8.48;6.78;;;2.70;99.90;;;;;;4945318;29;20062;-71
2022/01/11 00:19:01;;;;;;;8.93;7.05;;;2.60;99.90;;;;;;4943626;29;20035;-74
2022/01/11 00:21:29;;;;;;;10.48;6.80;;;2.70;99.90;;;;;;4942426;29;20035;-74
2022/01/11 00:26:47;;;;;;;10.23;6.53;;;2.60;99.90;;;;;;4943076;29;20042;-71
2022/01/11 00:29:15;;;;;;;8.68;6.65;;;2.70;99.90;;;;;;4949553;29;20043;-72
2022/01/11 00:31:45;;;;;;;8.40;7.00;;;2.70;99.90;;;;;;4950223;29;20106;-73
2022/01/11 00:34:15;;;;;;;9.80;7.40;;;2.80;99.90;;;;;;4950077;29;20127;-72
2022/01/11 00:36:44;;;;;;;7.78;6.35;;;2.80;99.90;;;;;;4926864;28;20058;-73
2022/01/11 00:39:13;;;;;;;8.00;6.50;;;2.70;99.90;;;;;;4943911;29;20130;-73
2022/01/11 00:41:42;;;;;;;8.80;6.72;;;2.60;99.90;;;;;;4926602;29;20066;-71
2022/01/11 00:44:10;;;;;;;8.18;6.70;;;2.60;99.90;;;;;;4943853;29;20046;-73
2022/01/11 00:46:40;;;;;;;10.43;7.07;;;2.50;99.90;;;;;;4938853;29;20814;-73
2022/01/11 00:49:08;;;;;;;8.82;6.75;;;2.50;99.90;;;;;;4935186;29;20040;-73
2022/01/11 00:51:35;;;;;;;9.27;6.78;;;2.40;99.90;;;;;;4935529;29;20054;-72
2022/01/11 00:54:03;;;;;;;7.03;6.18;;;2.40;99.90;;;;;;4934382;29;20051;-73
2022/01/11 00:56:30;;;;;;;8.80;6.82;;;2.40;99.90;;;;;;4933806;29;20458;-73
2022/01/11 00:58:58;;;;;;;7.90;6.32;;;2.40;99.90;;;;;;4935179;29;20050;-73
2022/01/11 01:01:27;;;;;;;8.38;7.00;;;2.40;99.90;;;;;;4935032;29;20135;-75
2022/01/11 01:03:55;;;;;;;8.40;6.90;;;2.40;99.90;;;;;;4935151;29;20530;-74
2022/01/11 01:06:22;;;;;;;9.23;6.72;;;2.50;99.90;;;;;;4933877;29;20047;-74
2022/01/11 01:08:49;;;;;;;13.68;7.25;;;2.50;99.90;;;;;;4934161;29;20495;-73
2022/01/11 01:11:17;;;;;;;9.65;7.07;;;2.40;99.90;;;;;;4933943;29;20403;-74
2022/01/11 01:13:44;;;;;;;8.35;6.95;;;2.50;99.90;;;;;;4923626;29;20050;-72
2022/01/11 01:16:11;;;;;;;8.82;6.70;;;2.40;99.90;;;;;;4942718;29;20058;-73
2022/01/11 01:18:39;;;;;;;9.32;6.68;;;2.50;99.90;;;;;;4934856;29;20580;-73
2022/01/11 01:21:06;;;;;;;9.00;6.10;;;2.40;99.90;;;;;;4944415;29;20126;-74
2022/01/11 01:23:34;;;;;;;8.25;6.32;;;2.40;99.90;;;;;;4926409;28;20036;-74
2022/01/11 01:26:02;;;;;;;7.88;5.80;;;2.40;99.90;;;;;;4944171;28;20039;-72
2022/01/11 01:28:30;;;;;;;9.07;7.20;;;2.40;99.90;;;;;;4939891;29;20069;-74
2022/01/11 01:31:01;;;;;;;10.10;7.57;;;2.50;99.90;;;;;;4934655;29;20670;-74
2022/01/11 01:33:33;;;;;;;8.50;6.78;;;2.40;99.90;;;;;;4933819;29;20091;-74
2022/01/11 01:36:10;;;;;;;9.38;7.85;;;2.40;99.90;;;;;;4934785;29;20054;-73
2022/01/11 01:38:38;;;;;;;8.23;6.78;;;2.50;99.90;;;;;;4933365;29;20046;-72
2022/01/11 01:41:17;;;;;;;10.57;7.25;;;2.50;99.90;;;;;;4917806;29;20411;-73
2022/01/11 01:43:50;;;;;;;8.10;6.70;;;2.50;99.90;;;;;;4934518;29;20408;-72
2022/01/11 01:46:18;;;;;;;10.23;7.25;;;2.40;99.90;;;;;;4933442;29;20047;-73
2022/01/11 01:48:46;;;;;;;9.23;7.32;;;2.50;99.90;;;;;;4933046;29;20040;-73
2022/01/11 01:51:14;;;;;;;7.95;6.70;;;2.50;99.90;;;;;;4933172;29;20054;-73
2022/01/11 01:53:47;;;;;;;10.40;7.28;;;2.50;99.90;;;;;;4933469;29;20395;-73
2022/01/11 01:56:17;;;;;;;8.77;6.22;;;2.60;99.90;;;;;;4932571;29;20051;-72
2022/01/11 01:58:45;;;;;;;9.77;7.85;;;2.30;99.90;;;;;;4933131;29;20396;-72
2022/01/11 02:01:14;;;;;;;10.10;8.32;;;2.20;99.90;;;;;;4933106;29;20074;-72
2022/01/11 02:03:43;;;;;;;8.65;6.60;;;2.30;99.90;;;;;;4934338;29;20043;-73
2022/01/11 02:06:14;;;;;;;10.55;8.15;;;2.20;99.90;;;;;;4933838;29;20036;-74
2022/01/11 02:08:44;;;;;;;11.32;7.60;;;2.30;99.90;;;;;;4934353;29;20043;-73
2022/01/11 02:11:15;;;;;;;10.80;8.52;;;2.20;99.90;;;;;;4932889;29;20035;-71
2022/01/11 02:13:44;;;;;;;10.23;7.53;;;2.20;99.90;;;;;;4934370;29;20114;-72
2022/01/11 02:16:13;;;;;;;8.38;6.90;;;2.10;99.90;;;;;;4949827;29;20041;-72
2022/01/11 02:18:46;;;;;;;13.80;7.57;;;2.10;99.90;;;;;;4952184;29;20053;-72
2022/01/11 02:21:13;;;;;;;9.77;7.50;;;2.20;99.90;;;;;;4951873;29;20094;-73
2022/01/11 02:23:41;;;;;;;11.80;7.30;;;2.20;99.90;;;;;;4953134;28;20032;-73
2022/01/11 02:26:08;;;;;;;8.68;6.63;;;2.20;99.90;;;;;;4953417;28;20122;-74
2022/01/11 02:28:36;;;;;;;9.02;6.82;;;2.10;99.90;;;;;;4936381;29;20039;-72
2022/01/11 02:31:07;;;;;;;9.18;6.95;;;2.00;99.90;;;;;;4952879;28;20495;-73
2022/01/11 02:33:41;;;;;;;8.10;6.63;;;2.00;99.90;;;;;;4953323;28;20049;-73
2022/01/11 02:36:20;;;;;;;11.20;7.57;;;2.00;99.90;;;;;;4953310;28;20122;-72
2022/01/11 02:38:50;;;;;;;12.15;7.72;;;2.10;99.90;;;;;;4951960;28;20047;-72
2022/01/11 02:41:17;;;;;;;10.43;7.30;;;2.10;99.90;;;;;;4953029;28;20039;-74
2022/01/11 02:43:47;;;;;;;8.00;6.88;;;2.00;99.90;;;;;;4952808;28;20365;-73
2022/01/11 02:46:17;;;;;;;8.67;7.20;;;1.90;99.90;;;;;;4936190;29;20047;-72
2022/01/11 02:48:44;;;;;;;9.98;7.85;;;2.00;99.90;;;;;;4951920;29;20371;-70
2022/01/11 02:51:12;;;;;;;9.27;8.00;;;2.00;99.90;;;;;;4951576;29;20483;-70
2022/01/11 02:53:43;;;;;;;8.63;6.82;;;1.90;99.90;;;;;;4952951;28;20039;-71
2022/01/11 02:56:12;;;;;;;9.48;7.38;;;1.90;99.90;;;;;;4951271;28;20051;-72
2022/01/11 02:58:39;;;;;;;10.27;7.25;;;1.90;99.90;;;;;;4953125;28;20047;-71
2022/01/11 03:01:09;;;;;;;8.85;6.60;;;1.90;99.90;;;;;;4936098;29;20047;-74
2022/01/11 03:03:37;;;;;;;9.55;7.43;;;2.00;99.90;;;;;;4952031;29;20142;-73
2022/01/11 03:06:05;;;;;;;9.43;7.45;;;2.00;99.90;;;;;;4952923;28;20036;-74
2022/01/11 03:08:36;;;;;;;9.70;7.63;;;2.10;99.90;;;;;;4953064;28;20043;-73
2022/01/11 03:11:05;;;;;;;8.27;7.18;;;2.10;99.90;;;;;;4952832;28;20039;-74
2022/01/11 03:13:35;;;;;;;7.93;6.32;;;2.10;99.90;;;;;;4951703;28;20055;-71
2022/01/11 03:16:03;;;;;;;9.17;7.00;;;2.00;99.90;;;;;;4940149;28;20032;-72
2022/01/11 03:18:31;;;;;;;8.65;7.32;;;2.10;99.90;;;;;;4937149;29;20070;-71
2022/01/11 03:21:00;;;;;;;9.43;6.97;;;2.10;99.90;;;;;;4937094;29;20040;-70
2022/01/11 03:23:28;;;;;;;10.50;7.40;;;2.00;99.90;;;;;;4937218;29;20058;-73
2022/01/11 03:26:02;;;;;;;7.97;6.25;;;2.00;99.90;;;;;;4936910;29;20034;-72
2022/01/11 03:28:30;;;;;;;9.73;6.72;;;2.00;99.90;;;;;;4937233;29;20090;-73
2022/01/11 03:30:57;;;;;;;8.45;7.07;;;1.90;99.90;;;;;;4936517;29;20044;-73
2022/01/11 03:33:25;;;;;;;9.98;7.07;;;1.90;99.90;;;;;;4937150;29;20391;-72
2022/01/11 03:35:53;;;;;;;8.05;6.72;;;2.00;99.90;;;;;;4936865;29;20476;-74
2022/01/11 03:38:22;;;;;;;8.85;7.07;;;1.90;99.90;;;;;;4935595;29;20514;-73
2022/01/11 03:40:51;;;;;;;9.00;7.43;;;1.90;99.90;;;;;;4936658;29;20043;-72
2022/01/11 03:43:21;;;;;;;11.15;7.50;;;1.90;99.90;;;;;;4936844;29;20039;-72
2022/01/11 03:45:50;;;;;;;8.55;6.63;;;2.00;99.90;;;;;;4935294;29;20035;-72
2022/01/11 03:48:18;;;;;;;8.63;6.88;;;2.00;99.90;;;;;;4936830;29;20074;-72
2022/01/11 03:50:52;;;;;;;8.30;6.80;;;2.00;99.90;;;;;;4935388;29;20040;-72
2022/01/11 03:53:24;;;;;;;9.63;7.18;;;2.10;99.90;;;;;;4936259;29;20110;-72
2022/01/11 03:56:10;;;;;;;9.10;6.95;;;2.10;99.90;;;;;;4936108;29;20046;-73
2022/01/11 03:58:38;;;;;;;9.23;7.35;;;2.20;99.90;;;;;;4936491;29;20075;-73
2022/01/11 04:01:05;;;;;;;10.30;7.35;;;2.20;99.90;;;;;;4936009;29;20432;-72
2022/01/11 04:03:33;;;;;;;11.88;6.78;;;2.20;99.90;;;;;;4936727;29;20447;-75
2022/01/11 04:06:00;;;;;;;9.30;6.95;;;2.30;99.90;;;;;;4935088;29;20036;-74
2022/01/11 04:08:27;;;;;;;7.50;6.18;;;2.30;99.90;;;;;;4936437;29;20058;-72
2022/01/11 04:11:00;;;;;;;7.78;6.60;;;2.40;99.90;;;;;;4936136;29;20045;-73
2022/01/11 04:13:27;;;;;;;9.00;6.93;;;2.40;99.90;;;;;;4936064;28;20141;-73
2022/01/11 04:15:55;;;;;;;8.27;6.57;;;2.40;99.90;;;;;;4945853;29;20407;-73
2022/01/11 04:18:32;;;;;;;8.50;6.88;;;2.50;99.90;;;;;;4955269;28;20118;-72
2022/01/11 04:21:00;;;;;;;7.47;6.53;;;2.50;99.90;;;;;;4955085;29;20418;-73
2022/01/11 04:23:33;;;;;;;9.23;6.03;;;2.50;99.90;;;;;;4955346;28;20050;-74
2022/01/11 04:26:01;;;;;;;10.10;6.13;;;2.50;99.90;;;;;;4954953;29;20043;-73
2022/01/11 04:28:28;;;;;;;9.95;6.80;;;2.60;99.90;;;;;;4954910;28;20050;-72
2022/01/11 04:30:58;;;;;;;8.32;6.35;;;2.60;99.90;;;;;;4955116;28;20114;-74
2022/01/11 04:33:26;;;;;;;9.52;7.35;;;2.50;99.90;;;;;;4954175;29;20126;-73
2022/01/11 04:35:54;;;;;;;8.23;6.70;;;2.50;99.90;;;;;;4954725;28;20035;-72
2022/01/11 04:38:24;;;;;;;10.25;7.10;;;2.50;99.90;;;;;;4954829;28;20039;-73
2022/01/11 04:40:52;;;;;;;10.48;6.93;;;2.50;99.90;;;;;;4953504;29;20398;-72
2022/01/11 04:43:20;;;;;;;12.60;7.00;;;2.50;99.90;;;;;;4953738;29;20051;-72
2022/01/11 04:45:48;;;;;;;8.40;6.80;;;2.50;99.90;;;;;;4953394;29;20043;-73
2022/01/11 04:48:16;;;;;;;8.20;6.43;;;2.50;99.90;;;;;;4954089;29;20049;-72
2022/01/11 04:50:45;;;;;;;8.73;6.70;;;2.50;99.90;;;;;;4953768;29;20044;-74
2022/01/11 04:53:19;;;;;;;8.50;6.43;;;2.50;99.90;;;;;;4954570;28;20042;-74
2022/01/11 04:55:47;;;;;;;9.68;7.35;;;2.60;99.90;;;;;;4953170;28;20051;-74
2022/01/11 04:58:18;;;;;;;8.30;6.63;;;2.60;99.90;;;;;;4953784;28;20139;-73
2022/01/11 05:00:45;;;;;;;8.82;6.25;;;2.60;99.90;;;;;;4954492;28;20050;-73
2022/01/11 05:03:13;;;;;;;9.77;7.05;;;2.70;99.90;;;;;;4953464;29;20045;-72
2022/01/11 05:05:40;;;;;;;9.60;6.70;;;2.70;99.90;;;;;;4953020;29;20447;-72
2022/01/11 05:08:08;;;;;;;8.05;6.80;;;2.60;99.90;;;;;;4954563;28;20039;-71
2022/01/11 05:10:35;;;;;;;9.63;6.70;;;2.60;99.90;;;;;;4953375;29;20046;-72
2022/01/11 05:13:02;;;;;;;9.73;7.50;;;2.60;99.90;;;;;;4953473;29;20067;-72
2022/01/11 05:15:30;;;;;;;8.27;6.55;;;2.60;99.90;;;;;;4953854;28;20426;-72
2022/01/11 05:17:58;;;;;;;9.55;6.88;;;2.60;99.90;;;;;;4954409;28;20039;-73
2022/01/11 05:20:25;;;;;;;10.45;7.47;;;2.60;99.90;;;;;;4954050;28;20487;-72
2022/01/11 05:22:52;;;;;;;9.15;7.13;;;2.60;99.90;;;;;;4954122;28;20122;-74
2022/01/11 05:25:21;;;;;;;8.48;6.55;;;2.70;99.90;;;;;;4952939;28;20129;-71
2022/01/11 05:27:48;;;;;;;8.90;6.95;;;2.70;99.90;;;;;;4953843;28;20047;-71
2022/01/11 05:30:17;;;;;;;10.00;6.78;;;2.70;99.90;;;;;;4952820;29;20438;-71
2022/01/11 05:32:44;;;;;;;8.90;7.05;;;2.80;99.90;;;;;;4952734;29;20089;-71
2022/01/11 05:35:12;;;;;;;7.93;6.60;;;2.80;99.90;;;;;;4953621;28;20368;-71
2022/01/11 05:37:40;;;;;;;12.25;7.88;;;2.80;99.90;;;;;;4953795;29;20039;-73
2022/01/11 05:40:09;;;;;;;9.48;7.25;;;2.80;99.90;;;;;;4953235;28;20035;-71
2022/01/11 05:42:37;;;;;;;6.95;6.13;;;2.80;99.90;;;;;;4952541;29;20047;-72
2022/01/11 05:45:06;;;;;;;7.90;6.32;;;2.80;99.90;;;;;;4953598;28;20043;-71
2022/01/11 05:47:34;;;;;;;9.32;6.93;;;2.80;99.90;;;;;;4936651;29;20149;-72
2022/01/11 05:50:06;;;;;;;7.75;6.72;;;2.80;99.90;;;;;;4952522;29;20110;-72
2022/01/11 05:52:38;;;;;;;9.45;7.25;;;2.80;99.90;;;;;;4952724;29;20085;-73
2022/01/11 05:55:08;;;;;;;10.95;7.00;;;2.80;99.90;;;;;;4952010;29;20432;-72
2022/01/11 05:57:35;;;;;;;10.70;7.20;;;2.80;99.90;;;;;;4953527;28;20047;-72
2022/01/11 06:00:06;;;;;;;9.10;7.00;;;2.90;99.90;;;;;;4953607;28;20047;-72
2022/01/11 06:02:34;;;;;;;9.50;7.28;;;2.90;99.90;;;;;;4953582;28;20043;-73
2022/01/11 06:05:01;;;;;;;8.38;6.22;;;2.90;99.90;;;;;;4952041;29;20495;-73
2022/01/11 06:07:29;;;;;;;9.40;7.00;;;2.90;99.90;;;;;;4953489;28;20483;-74
2022/01/11 06:09:56;;;;;;;11.93;8.20;;;3.00;99.90;;;;;;4953370;28;20039;-72
2022/01/11 06:12:23;;;;;;;16.77;9.57;;;3.00;99.90;;;;;;4953942;28;20070;-73
2022/01/11 06:14:51;;;;;;;9.52;7.55;;;3.10;99.90;;;;;;4952076;28;20130;-71
2022/01/11 06:17:18;;;;;;;10.30;7.28;;;3.00;99.90;;;;;;4935833;28;20039;-72
2022/01/11 06:19:45;;;;;;;9.70;6.85;;;2.90;99.90;;;;;;4934164;29;20046;-70
2022/01/11 06:22:12;;;;;;;14.05;9.30;;;3.00;99.90;;;;;;4933915;29;20067;-71
2022/01/11 06:24:40;;;;;;;62.13;31.50;;;3.00;99.90;;;;;;4932748;29;20040;-71
2022/01/11 06:27:07;;;;;;;13.43;10.38;;;3.20;99.90;;;;;;4934472;29;20043;-72
2022/01/11 06:29:36;;;;;;;8.75;6.40;;;3.20;99.90;;;;;;4933690;29;20079;-75
2022/01/11 06:32:04;;;;;;;9.82;6.82;;;3.10;99.90;;;;;;4917060;29;20061;-70
2022/01/11 06:34:32;;;;;;;14.23;7.10;;;3.00;99.90;;;;;;4932981;29;20134;-70
2022/01/11 06:36:59;;;;;;;10.50;7.25;;;3.10;99.90;;;;;;4945435;29;20130;-70
2022/01/11 06:39:27;;;;;;;8.57;7.35;;;3.00;99.90;;;;;;4943092;29;20043;-71
2022/01/11 06:41:54;;;;;;;9.45;7.25;;;3.00;99.90;;;;;;4925515;29;20379;-71
2022/01/11 06:44:21;;;;;;;9.63;7.32;;;3.10;99.90;;;;;;4934090;29;20456;-71
2022/01/11 06:46:51;;;;;;;10.07;7.10;;;3.10;99.90;;;;;;4933857;29;20031;-71
2022/01/11 06:49:18;;;;;;;12.48;7.57;;;3.20;99.90;;;;;;4933653;29;20119;-71
2022/01/11 06:51:45;;;;;;;12.02;7.43;;;3.20;99.90;;;;;;4936385;29;20059;-72
2022/01/11 06:54:12;;;;;;;7.63;6.80;;;3.20;99.90;;;;;;4937672;29;20040;-70
2022/01/11 06:56:40;;;;;;;11.13;7.60;;;3.10;99.90;;;;;;4937341;29;20044;-70
2022/01/11 06:59:07;;;;;;;10.38;7.70;;;3.20;99.90;;;;;;4937468;29;20040;-72
2022/01/11 07:01:34;;;;;;;10.05;7.30;;;3.20;99.90;;;;;;4937409;29;20039;-73
2022/01/11 07:04:02;;;;;;;11.52;7.57;;;3.20;99.90;;;;;;4937477;29;20067;-72
2022/01/11 07:06:29;;;;;;;9.02;7.43;;;3.20;99.90;;;;;;4937256;29;20039;-70
2022/01/11 07:08:57;;;;;;;9.52;7.35;;;3.20;99.90;;;;;;4937368;29;20044;-71
2022/01/11 07:11:24;;;;;;;9.35;7.03;;;3.40;99.90;;;;;;4937270;29;20058;-71
2022/01/11 07:13:51;;;;;;;8.60;6.78;;;3.30;99.90;;;;;;4937241;29;20075;-71
2022/01/11 07:16:19;;;;;;;9.45;7.28;;;3.30;99.90;;;;;;4943698;29;20036;-71
2022/01/11 07:18:47;;;;;;;8.80;6.88;;;3.30;99.90;;;;;;4955987;28;20054;-71
2022/01/11 07:21:14;;;;;;;11.38;7.47;;;3.30;99.90;;;;;;4955350;28;20036;-73
2022/01/11 07:23:41;;;;;;;10.63;7.88;;;3.30;99.90;;;;;;4954768;28;20478;-71
2022/01/11 07:26:08;;;;;;;9.15;7.38;;;3.30;99.90;;;;;;4953804;29;20046;-70
2022/01/11 07:28:39;;;;;;;8.05;7.05;;;3.30;99.90;;;;;;4952943;29;20507;-73
2022/01/11 07:31:06;;;;;;;8.90;7.05;;;3.30;99.90;;;;;;4954657;28;20057;-71
2022/01/11 07:33:34;;;;;;;11.05;6.93;;;3.30;99.90;;;;;;4954701;28;20102;-71
2022/01/11 07:36:01;;;;;;;8.95;7.22;;;3.30;99.90;;;;;;4955048;28;20050;-71
2022/01/11 07:38:28;;;;;;;9.40;7.28;;;3.30;99.90;;;;;;4954310;29;20047;-70
2022/01/11 07:40:56;;;;;;;8.85;6.93;;;3.30;99.90;;;;;;4955916;28;20058;-71
2022/01/11 07:43:23;;;;;;;10.38;6.78;;;3.40;99.90;;;;;;4954538;29;20043;-70
2022/01/11 07:45:50;;;;;;;9.77;6.80;;;3.30;99.90;;;;;;4955413;28;20383;-72
2022/01/11 07:48:18;;;;;;;9.18;6.97;;;3.30;99.90;;;;;;4955494;28;20035;-73
2022/01/11 07:50:45;;;;;;;9.55;7.18;;;3.40;99.90;;;;;;4955805;29;20447;-71
2022/01/11 07:53:12;;;;;;;8.65;7.05;;;3.40;99.90;;;;;;4955681;28;20039;-72
2022/01/11 07:55:39;;;;;;;8.40;7.25;;;3.40;99.90;;;;;;4955317;28;20366;-72
2022/01/11 07:58:07;;;;;;;8.52;7.30;;;3.30;99.90;;;;;;4955595;28;20118;-72
2022/01/11 08:00:34;;;;;;;10.77;7.13;;;3.40;99.90;;;;;;4954355;29;20031;-73
2022/01/11 08:03:01;;;;;;;8.50;6.85;;;3.40;99.90;;;;;;4954587;28;20071;-72
2022/01/11 08:05:31;;;;;;;9.40;7.20;;;3.30;99.90;;;;;;4954505;29;20390;-72
2022/01/11 08:07:59;;;;;;;10.55;7.40;;;3.40;99.90;;;;;;4955263;28;20102;-72
2022/01/11 08:10:26;;;;;;;7.47;6.10;;;3.40;99.90;;;;;;4955403;29;20035;-72
2022/01/11 08:12:54;;;;;;;10.32;7.47;;;3.30;99.90;;;;;;4955241;29;20047;-72
2022/01/11 08:15:21;;;;;;;9.85;6.95;;;3.30;99.90;;;;;;4955000;28;20039;-72
2022/01/11 08:17:51;;;;;;;10.30;7.35;;;3.40;99.90;;;;;;4937001;28;20051;-72
2022/01/11 08:20:29;;;;;;;9.65;6.93;;;3.40;99.90;;;;;;4936296;29;20392;-71
2022/01/11 08:22:56;;;;;;;8.25;6.40;;;3.30;99.90;;;;;;4935902;29;20050;-72
2022/01/11 08:25:27;;;;;;;10.30;7.25;;;3.30;99.90;;;;;;4935833;29;20047;-72
2022/01/11 08:27:54;;;;;;;9.30;6.63;;;3.30;99.90;;;;;;4935694;29;20067;-72
2022/01/11 08:30:21;;;;;;;12.73;8.07;;;3.20;99.90;;;;;;4936303;29;20042;-73
2022/01/11 08:32:49;;;;;;;11.30;7.57;;;3.30;99.90;;;;;;4935962;29;20423;-72
2022/01/11 08:35:17;;;;;;;9.57;7.40;;;3.30;99.90;;;;;;4935640;29;20046;-72
2022/01/11 08:37:44;;;;;;;9.23;6.93;;;3.40;99.90;;;;;;4934650;29;20078;-73
2022/01/11 08:40:13;;;;;;;9.13;6.90;;;3.40;99.90;;;;;;4936103;29;20032;-71
2022/01/11 08:42:41;;;;;;;8.95;6.78;;;3.50;99.90;;;;;;4934457;29;20131;-72
2022/01/11 08:45:09;;;;;;;7.95;6.15;;;3.50;99.90;;;;;;4935296;29;20035;-72
2022/01/11 08:47:36;;;;;;;7.60;6.40;;;3.40;99.90;;;;;;4935871;29;20039;-73
2022/01/11 08:50:07;;;;;;;8.50;6.63;;;3.40;99.90;;;;;;4934213;29;20063;-72
2022/01/11 08:52:34;;;;;;;8.90;6.80;;;3.40;99.90;;;;;;4934815;29;20078;-74
2022/01/11 08:55:03;;;;;;;8.20;6.82;;;3.40;99.90;;;;;;4934168;29;20111;-71
2022/01/11 08:57:32;;;;;;;9.55;6.90;;;3.50;99.90;;;;;;4934150;29;20051;-74
2022/01/11 09:00:03;;;;;;;8.05;6.53;;;3.50;99.90;;;;;;4934130;28;20040;-72
2022/01/11 09:02:32;;;;;;;12.13;7.30;;;3.50;99.90;;;;;;4934300;29;20046;-72
2022/01/11 09:04:59;;;;;;;9.63;7.13;;;3.50;99.90;;;;;;4933914;29;20432;-73
2022/01/11 09:07:29;;;;;;;7.80;6.93;;;3.40;99.90;;;;;;4934262;29;20047;-72
2022/01/11 09:09:57;;;;;;;11.45;7.10;;;3.50;99.90;;;;;;4933678;29;20042;-72
2022/01/11 09:12:24;;;;;;;8.20;6.50;;;3.50;99.90;;;;;;4941346;29;20477;-73
2022/01/11 09:14:51;;;;;;;10.20;7.13;;;3.50;99.90;;;;;;4941866;28;20122;-71
2022/01/11 09:17:19;;;;;;;9.00;6.90;;;3.40;99.90;;;;;;4942465;29;20040;-70
2022/01/11 09:19:46;;;;;;;13.45;7.72;;;3.40;99.90;;;;;;4942767;29;20131;-71
2022/01/11 09:22:14;;;;;;;10.23;7.47;;;3.40;99.90;;;;;;4941970;28;20043;-72
2022/01/11 09:24:44;;;;;;;;;;;3.40;99.90;;;;;;4942497;29;20091;-73
2022/01/11 09:27:11;;;;;;;8.95;7.07;;;3.40;99.90;;;;;;4943615;28;19925;-71
2022/01/11 09:29:39;;;;;;;8.05;7.00;;;3.40;99.90;;;;;;4950475;29;20043;-70
2022/01/11 09:32:08;;;;;;;8.95;6.90;;;3.50;99.90;;;;;;4925549;29;20042;-71
2022/01/11 09:34:37;;;;;;;10.18;7.20;;;3.60;99.90;;;;;;4941506;29;20443;-72
2022/01/11 09:37:05;;;;;;;8.88;7.35;;;3.50;99.90;;;;;;4940968;29;20421;-71
2022/01/11 09:39:33;;;;;;;8.30;7.18;;;3.60;99.90;;;;;;4942401;28;20336;-71
2022/01/11 09:42:02;;;;;;;9.25;7.50;;;3.50;99.90;;;;;;4944265;29;20090;-72
2022/01/11 09:44:29;;;;;;;9.38;6.78;;;3.50;99.90;;;;;;4925500;29;20047;-71
2022/01/11 09:46:57;;;;;;;9.15;7.03;;;3.70;99.90;;;;;;4925070;28;20040;-69
2022/01/11 09:49:25;;;;;;;8.70;6.90;;;3.80;99.90;;;;;;4941012;29;20412;-71
2022/01/11 09:51:53;;;;;;;10.32;7.25;;;3.80;99.90;;;;;;4943023;28;20027;-70
2022/01/11 09:54:21;;;;;;;9.20;7.07;;;3.80;99.90;;;;;;4943484;29;20043;-71
2022/01/11 09:56:49;;;;;;;9.90;7.20;;;3.80;99.90;;;;;;4931439;29;20044;-72
2022/01/11 09:59:16;;;;;;;10.73;7.65;;;3.90;99.90;;;;;;4941884;28;20704;-71
2022/01/11 10:01:43;;;;;;;8.15;7.10;;;4.00;99.90;;;;;;4941935;28;20426;-71
2022/01/11 10:04:14;;;;;;;8.80;6.88;;;3.90;99.90;;;;;;4939920;29;20039;-71
2022/01/11 10:06:42;;;;;;;7.70;6.88;;;3.90;99.90;;;;;;4946893;28;20048;-71
2022/01/11 10:09:21;;;;;;;7.85;6.47;;;3.90;99.90;;;;;;4941649;28;20077;-71
2022/01/11 10:11:59;;;;;;;10.52;7.50;;;3.90;99.90;;;;;;4941246;29;20495;-73
2022/01/11 10:14:31;;;;;;;8.13;6.30;;;4.20;99.90;;;;;;4946206;28;20035;-71
2022/01/11 10:17:05;;;;;;;11.55;7.00;;;4.00;99.90;;;;;;4942512;29;20043;-72
2022/01/11 10:19:32;;;;;;;8.52;6.78;;;4.00;99.90;;;;;;4943285;29;20038;-72
2022/01/11 10:22:04;;;;;;;13.20;6.85;;;4.00;99.90;;;;;;4951583;29;20043;-71
2022/01/11 10:24:39;;;;;;;9.75;7.03;;;4.00;99.90;;;;;;4944678;28;20050;-70
2022/01/11 10:27:08;;;;;;;9.00;7.00;;;4.00;99.90;;;;;;4950847;29;20094;-70
2022/01/11 10:29:41;;;;;;;8.35;6.82;;;4.10;99.90;;;;;;4952245;28;20133;-70
2022/01/11 10:32:20;;;;;;;8.95;6.88;;;4.10;99.90;;;;;;4949957;28;20380;-70
2022/01/11 10:34:52;;;;;;;9.70;6.95;;;4.10;99.90;;;;;;4949197;28;20036;-70
2022/01/11 10:37:44;;;;;;;8.55;6.30;;;4.20;99.90;;;;;;4948416;29;20506;-70
2022/01/11 10:40:16;;;;;;;8.98;6.30;;;4.30;99.90;;;;;;4946287;28;20039;-70
2022/01/11 10:43:00;;;;;;;9.50;6.72;;;4.20;99.90;;;;;;4945733;28;20378;-69
2022/01/11 10:45:39;;;;;;;9.75;6.72;;;4.30;99.90;;;;;;4947512;28;20090;-70
2022/01/11 10:48:13;;;;;;;9.10;6.93;;;4.50;99.90;;;;;;4941519;28;20113;-71
2022/01/11 10:50:43;;;;;;;8.85;6.75;;;4.50;99.90;;;;;;4942229;28;20035;-71
2022/01/11 10:53:19;;;;;;;8.48;6.43;;;4.60;99.90;;;;;;4943193;28;20037;-71
2022/01/11 10:55:50;;;;;;;8.02;6.55;;;4.70;99.90;;;;;;4941941;28;20609;-71
2022/01/11 10:58:37;;;;;;;10.63;7.13;;;4.40;99.90;;;;;;4940077;28;20453;-70
2022/01/11 11:01:09;;;;;;;7.43;6.63;;;4.50;99.90;;;;;;4941052;28;20115;-69
2022/01/11 11:03:37;;;;;;;8.10;6.63;;;4.50;99.90;;;;;;4942642;28;20043;-69
2022/01/11 11:06:10;;;;;;;9.07;6.57;;;4.50;99.90;;;;;;4941764;29;20082;-70
2022/01/11 11:08:44;;;;;;;8.25;6.80;;;4.60;99.90;;;;;;4940354;28;20087;-72
2022/01/11 11:11:18;;;;;;;9.48;7.32;;;4.70;99.90;;;;;;4961992;28;20217;-71
2022/01/11 11:13:49;;;;;;;9.52;7.18;;;4.60;99.90;;;;;;4943596;28;20058;-71
2022/01/11 11:16:30;;;;;;;8.65;6.88;;;4.60;99.90;;;;;;4939779;28;20134;-71
2022/01/11 11:19:00;;;;;;;7.38;6.35;;;4.60;99.90;;;;;;4939763;28;20487;-71
2022/01/11 11:21:37;;;;;;;9.85;6.93;;;4.40;99.90;;;;;;4927360;29;20043;-71
2022/01/11 11:24:06;;;;;;;10.43;7.10;;;4.60;99.90;;;;;;4939038;28;20054;-71
2022/01/11 11:26:37;;;;;;;8.73;6.95;;;4.70;99.90;;;;;;4946287;28;20079;-70
2022/01/11 11:29:11;;;;;;;9.07;6.57;;;4.60;99.90;;;;;;4944178;28;20036;-71
2022/01/11 11:31:59;;;;;;;8.27;6.05;;;4.70;99.90;;;;;;4939679;28;20055;-70
2022/01/11 11:34:30;;;;;;;8.75;6.75;;;4.70;99.90;;;;;;4939081;28;20158;-69
2022/01/11 11:37:03;;;;;;;8.63;6.68;;;4.50;99.90;;;;;;4929202;29;20397;-71
2022/01/11 11:39:31;;;;;;;9.13;7.10;;;4.50;99.90;;;;;;4941590;29;20038;-69
2022/01/11 11:42:08;;;;;;;9.82;7.32;;;4.60;99.90;;;;;;4943153;29;20067;-69
2022/01/11 11:44:43;;;;;;;9.88;6.75;;;4.50;99.90;;;;;;4927339;29;20050;-69
2022/01/11 11:47:11;;;;;;;9.18;6.68;;;4.50;99.90;;;;;;4942962;29;20083;-70
2022/01/11 11:49:44;;;;;;;9.73;7.93;;;4.30;99.90;;;;;;4945921;28;20043;-69
2022/01/11 11:52:32;;;;;;;9.38;7.07;;;4.30;99.90;;;;;;4953582;28;20039;-70
2022/01/11 11:55:10;;;;;;;8.25;7.00;;;4.50;99.90;;;;;;4951707;28;20138;-69
2022/01/11 11:57:43;;;;;;;9.18;7.00;;;4.70;99.90;;;;;;4953579;29;20055;-68
2022/01/11 12:00:18;;;;;;;9.40;6.63;;;4.60;99.90;;;;;;4956622;28;20504;-71
2022/01/11 12:02:50;;;;;;;8.70;6.93;;;4.50;99.90;;;;;;4919904;29;20051;-71
2022/01/11 12:05:47;;;;;;;8.38;6.88;;;4.10;99.90;;;;;;4934910;29;20095;-69
2022/01/11 12:08:42;;;;;;;8.57;6.32;;;4.20;99.90;;;;;;4920674;28;20040;-72
2022/01/11 12:11:18;;;;;;;9.37;6.80;;;4.10;99.90;;;;;;4935845;28;20039;-69
2022/01/11 12:13:48;;;;;;;7.90;6.90;;;4.40;99.90;;;;;;4932457;28;20106;-76
2022/01/11 12:16:26;;;;;;;7.20;6.22;;;4.20;99.90;;;;;;4936806;29;20066;-74
2022/01/11 12:18:59;;;;;;;10.43;6.68;;;4.10;99.90;;;;;;4934166;29;20079;-72
2022/01/11 12:21:30;;;;;;;9.98;7.18;;;4.20;99.90;;;;;;4932647;28;20060;-74
2022/01/11 12:24:09;;;;;;;8.85;6.70;;;4.20;99.90;;;;;;4952241;28;20043;-73
2022/01/11 12:26:37;;;;;;;9.98;7.18;;;4.10;99.90;;;;;;4934659;29;20094;-72
2022/01/11 12:29:27;;;;;;;7.80;6.60;;;4.20;99.90;;;;;;4947855;28;20456;-75
2022/01/11 12:32:08;;;;;;;9.88;7.43;;;4.30;99.90;;;;;;4950445;28;20039;-71
2022/01/11 12:35:05;;;;;;;10.00;7.35;;;4.40;99.90;;;;;;4948503;29;20047;-73
2022/01/11 12:37:46;;;;;;;8.07;7.15;;;4.20;99.90;;;;;;4931842;29;20055;-70
2022/01/11 12:40:24;;;;;;;12.57;6.82;;;4.10;99.90;;;;;;4920944;29;20039;-74
2022/01/11 12:43:05;;;;;;;;;;;4.10;99.90;;;;;;4951242;28;20062;-70
2022/01/11 12:46:08;;;;;;;7.95;6.32;;;4.10;99.90;;;;;;4946727;28;19985;-73
2022/01/11 12:48:50;;;;;;;8.30;6.85;;;4.10;99.90;;;;;;4918306;29;20051;-74
2022/01/11 12:51:28;;;;;;;11.02;7.85;;;3.90;99.90;;;;;;4951327;29;20538;-73
2022/01/11 12:54:19;;;;;;;12.48;8.40;;;4.00;99.90;;;;;;4945258;29;20078;-74
2022/01/11 12:56:47;;;;;;;;;;;3.90;99.90;;;;;;4948337;28;20055;-73
2022/01/11 12:59:15;;;;;;;9.40;7.43;;;3.90;99.90;;;;;;4949038;28;19918;-74
2022/01/11 13:01:43;;;;;;;10.15;7.35;;;3.90;99.90;;;;;;4949441;28;20699;-74
2022/01/11 13:04:12;;;;;;;7.32;5.78;;;3.80;99.90;;;;;;4945839;28;20082;-73
2022/01/11 13:06:42;;;;;;;9.68;7.00;;;3.80;99.90;;;;;;4948734;28;20039;-72
2022/01/11 13:09:22;;;;;;;9.60;7.47;;;3.80;99.90;;;;;;4939300;29;20110;-74
2022/01/11 13:11:54;;;;;;;8.82;7.20;;;3.80;99.90;;;;;;4948405;28;20035;-72
2022/01/11 13:14:40;;;;;;;11.80;8.23;;;3.80;99.90;;;;;;4947790;28;20375;-70